Etusivu
METAR-TAF:

METAR-TAF

Lentoasemat :

Lewistown Municipal Airport

Lewistown, Montana, Yhdysvallat

Leveyspiiri: 47-02-57N, Pituuspiiri: 109-27-59W, korkeus merenpinnasta: 1270 m

Tämänhetkinen sää

Tämä raportti tehtiin 31 minuuttia sitten, kello 03.54 UTC
Tuuli 5 kn etelästä
Lämpötila 7°C
Kosteus 49%
Ilmanpaine 1019 hPa
Näkyvyys: 16.1 km
selkeää

METAR: KLWT 210354Z AUTO 19005KT 10SM CLR 07/M03 A3009 RMK AO2 SLP187 T00721033

Aika: 22:25 (04:25 UTC)

Sääennuste

Tämä raportti tehtiin 5 tuntia ja 5 minuuttia sitten, kello 23.20 UTC
Ennuste voimassa 21. päivästä klo 00 UTC - 21. päivään klo 24 UTC
Tuuli 11 kn lännestä/luoteesta
Näkyvyys: 10 km
selkeää
From 21. päivästä klo 0200 UTC
Tuuli 5 kn eri suunnista
Näkyvyys: 10 km
selkeää

TAF: KLWT 202320Z 2100/2124 30011KT P6SM SKC FM210200 VRB05KT P6SM SKC

Säähavainnot ja -ennusteet yli 4000 lentoasemalta (METAR- ja TAF-raportit).

Käytössä olevat sääasemat on merkitty karttaan keltaisilla ja punaisilla pisteillä.

Aseta hiiri pisteen päälle nähdäksesi sääaseman nimen.

Klikkaa sitten nähdäksesi säähavainnot ja -ennusteet.

Kartan vaihtaminen: klikkaa mustalla rastilla varustettuja vihreitä pisteitä, niin voit zoomata sisään; viivalla varustettua vihreää pistettä, niin voit zoomata ulos tai vihreitä nuolia, niin pääset viereisille kartoille.


METAR-TAF: